sensor_id;sensor_type;location;lat;lon;timestamp;P1;durP1;ratioP1;P2;durP2;ratioP2
45863;SDS011;31579;52.354;16.974;2022-12-18T00:02:18;62.40;;;22.20;;
45863;SDS011;31579;52.354;16.974;2022-12-18T00:07:18;73.10;;;24.00;;
45863;SDS011;31579;52.354;16.974;2022-12-18T00:12:18;73.10;;;24.00;;
45863;SDS011;31579;52.354;16.974;2022-12-18T00:20:01;73.00;;;26.40;;
45863;SDS011;31579;52.354;16.974;2022-12-18T00:25:01;73.00;;;26.40;;
45863;SDS011;31579;52.354;16.974;2022-12-18T00:30:01;78.50;;;25.90;;
45863;SDS011;31579;52.354;16.974;2022-12-18T00:35:01;78.50;;;25.90;;
45863;SDS011;31579;52.354;16.974;2022-12-18T00:40:01;81.00;;;26.80;;
45863;SDS011;31579;52.354;16.974;2022-12-18T00:47:34;83.60;;;27.50;;
45863;SDS011;31579;52.354;16.974;2022-12-18T00:52:34;83.60;;;27.50;;
45863;SDS011;31579;52.354;16.974;2022-12-18T00:57:34;81.60;;;26.70;;
45863;SDS011;31579;52.354;16.974;2022-12-18T01:02:34;81.60;;;26.70;;
45863;SDS011;31579;52.354;16.974;2022-12-18T01:02:47;81.60;;;26.70;;
45863;SDS011;31579;52.354;16.974;2022-12-18T01:12:05;84.90;;;27.60;;
45863;SDS011;31579;52.354;16.974;2022-12-18T01:17:05;83.60;;;26.50;;
45863;SDS011;31579;52.354;16.974;2022-12-18T01:22:05;83.60;;;26.50;;
45863;SDS011;31579;52.354;16.974;2022-12-18T01:27:05;78.80;;;26.00;;
45863;SDS011;31579;52.354;16.974;2022-12-18T01:32:05;78.80;;;26.00;;
45863;SDS011;31579;52.354;16.974;2022-12-18T01:37:05;76.80;;;24.80;;
45863;SDS011;31579;52.354;16.974;2022-12-18T01:47:05;69.70;;;23.10;;
45863;SDS011;31579;52.354;16.974;2022-12-18T01:52:05;69.70;;;23.10;;
45863;SDS011;31579;52.354;16.974;2022-12-18T01:57:05;65.10;;;22.90;;
45863;SDS011;31579;52.354;16.974;2022-12-18T02:02:05;65.10;;;22.90;;
45863;SDS011;31579;52.354;16.974;2022-12-18T02:12:10;69.10;;;23.10;;
45863;SDS011;31579;52.354;16.974;2022-12-18T02:17:16;69.90;;;22.90;;
45863;SDS011;31579;52.354;16.974;2022-12-18T02:27:09;76.00;;;23.30;;
45863;SDS011;31579;52.354;16.974;2022-12-18T02:32:06;76.00;;;23.30;;
45863;SDS011;31579;52.354;16.974;2022-12-18T02:37:07;72.40;;;24.30;;
45863;SDS011;31579;52.354;16.974;2022-12-18T02:42:05;72.40;;;24.30;;
45863;SDS011;31579;52.354;16.974;2022-12-18T02:47:04;66.90;;;22.80;;
45863;SDS011;31579;52.354;16.974;2022-12-18T02:57:06;64.30;;;22.10;;
45863;SDS011;31579;52.354;16.974;2022-12-18T03:07:02;71.20;;;24.10;;
45863;SDS011;31579;52.354;16.974;2022-12-18T03:12:07;71.20;;;24.10;;
45863;SDS011;31579;52.354;16.974;2022-12-18T03:17:02;72.00;;;23.10;;
45863;SDS011;31579;52.354;16.974;2022-12-18T03:22:02;72.00;;;23.10;;
45863;SDS011;31579;52.354;16.974;2022-12-18T03:25:01;72.00;;;23.10;;
45863;SDS011;31579;52.354;16.974;2022-12-18T03:28:15;72.00;;;23.10;;
45863;SDS011;31579;52.354;16.974;2022-12-18T03:38:13;79.00;;;24.10;;
45863;SDS011;31579;52.354;16.974;2022-12-18T03:46:04;74.00;;;24.90;;
45863;SDS011;31579;52.354;16.974;2022-12-18T03:52:37;74.00;;;24.90;;
45863;SDS011;31579;52.354;16.974;2022-12-18T03:57:31;68.60;;;24.60;;
45863;SDS011;31579;52.354;16.974;2022-12-18T04:02:31;68.60;;;24.60;;
45863;SDS011;31579;52.354;16.974;2022-12-18T04:07:31;72.10;;;23.40;;
45863;SDS011;31579;52.354;16.974;2022-12-18T04:12:31;72.10;;;23.40;;
45863;SDS011;31579;52.354;16.974;2022-12-18T04:17:31;74.60;;;24.10;;
45863;SDS011;31579;52.354;16.974;2022-12-18T04:22:31;74.60;;;24.10;;
45863;SDS011;31579;52.354;16.974;2022-12-18T04:27:31;67.80;;;22.90;;
45863;SDS011;31579;52.354;16.974;2022-12-18T04:32:32;67.80;;;22.90;;
45863;SDS011;31579;52.354;16.974;2022-12-18T04:37:31;75.60;;;24.80;;
45863;SDS011;31579;52.354;16.974;2022-12-18T04:42:31;75.60;;;24.80;;
45863;SDS011;31579;52.354;16.974;2022-12-18T04:47:35;72.00;;;22.60;;
45863;SDS011;31579;52.354;16.974;2022-12-18T04:52:31;72.00;;;22.60;;
45863;SDS011;31579;52.354;16.974;2022-12-18T04:57:31;72.80;;;23.60;;
45863;SDS011;31579;52.354;16.974;2022-12-18T05:02:31;72.80;;;23.60;;
45863;SDS011;31579;52.354;16.974;2022-12-18T05:07:34;63.20;;;21.30;;
45863;SDS011;31579;52.354;16.974;2022-12-18T05:12:31;63.20;;;21.30;;
45863;SDS011;31579;52.354;16.974;2022-12-18T05:17:31;64.00;;;21.50;;
45863;SDS011;31579;52.354;16.974;2022-12-18T05:22:31;64.00;;;21.50;;
45863;SDS011;31579;52.354;16.974;2022-12-18T05:27:33;70.20;;;22.30;;
45863;SDS011;31579;52.354;16.974;2022-12-18T05:32:31;70.20;;;22.30;;
45863;SDS011;31579;52.354;16.974;2022-12-18T05:37:31;71.70;;;22.90;;
45863;SDS011;31579;52.354;16.974;2022-12-18T05:42:31;71.70;;;22.90;;
45863;SDS011;31579;52.354;16.974;2022-12-18T05:47:31;71.10;;;23.80;;
45863;SDS011;31579;52.354;16.974;2022-12-18T05:52:31;71.10;;;23.80;;
45863;SDS011;31579;52.354;16.974;2022-12-18T05:57:31;68.30;;;21.80;;
45863;SDS011;31579;52.354;16.974;2022-12-18T06:02:31;68.30;;;21.80;;
45863;SDS011;31579;52.354;16.974;2022-12-18T06:07:31;64.60;;;19.90;;
45863;SDS011;31579;52.354;16.974;2022-12-18T06:12:31;64.60;;;19.90;;
45863;SDS011;31579;52.354;16.974;2022-12-18T06:17:32;61.00;;;19.10;;
45863;SDS011;31579;52.354;16.974;2022-12-18T06:22:31;61.00;;;19.10;;
45863;SDS011;31579;52.354;16.974;2022-12-18T06:27:31;65.10;;;21.40;;
45863;SDS011;31579;52.354;16.974;2022-12-18T06:32:31;65.10;;;21.40;;
45863;SDS011;31579;52.354;16.974;2022-12-18T06:37:31;64.80;;;22.10;;
45863;SDS011;31579;52.354;16.974;2022-12-18T06:42:31;64.80;;;22.10;;
45863;SDS011;31579;52.354;16.974;2022-12-18T06:47:31;91.20;;;26.20;;
45863;SDS011;31579;52.354;16.974;2022-12-18T06:52:32;91.20;;;26.20;;
45863;SDS011;31579;52.354;16.974;2022-12-18T06:56:08;93.20;;;27.00;;
45863;SDS011;31579;52.354;16.974;2022-12-18T07:01:07;93.20;;;27.00;;
45863;SDS011;31579;52.354;16.974;2022-12-18T07:06:11;95.80;;;30.00;;
45863;SDS011;31579;52.354;16.974;2022-12-18T07:11:06;95.80;;;30.00;;
45863;SDS011;31579;52.354;16.974;2022-12-18T07:16:08;97.50;;;30.50;;
45863;SDS011;31579;52.354;16.974;2022-12-18T07:21:07;97.50;;;30.50;;
45863;SDS011;31579;52.354;16.974;2022-12-18T07:26:07;88.10;;;27.50;;
45863;SDS011;31579;52.354;16.974;2022-12-18T07:31:07;88.10;;;27.50;;
45863;SDS011;31579;52.354;16.974;2022-12-18T07:36:06;88.50;;;27.20;;
45863;SDS011;31579;52.354;16.974;2022-12-18T07:41:09;88.50;;;27.20;;
45863;SDS011;31579;52.354;16.974;2022-12-18T07:46:06;81.90;;;25.80;;
45863;SDS011;31579;52.354;16.974;2022-12-18T07:51:06;81.90;;;25.80;;
45863;SDS011;31579;52.354;16.974;2022-12-18T07:56:11;74.40;;;24.10;;
45863;SDS011;31579;52.354;16.974;2022-12-18T08:01:07;74.40;;;24.10;;
45863;SDS011;31579;52.354;16.974;2022-12-18T08:06:07;70.70;;;24.10;;
45863;SDS011;31579;52.354;16.974;2022-12-18T08:11:06;70.70;;;24.10;;
45863;SDS011;31579;52.354;16.974;2022-12-18T08:15:05;71.40;;;23.50;;
45863;SDS011;31579;52.354;16.974;2022-12-18T08:20:03;71.40;;;23.50;;
45863;SDS011;31579;52.354;16.974;2022-12-18T08:25:03;75.80;;;24.80;;
45863;SDS011;31579;52.354;16.974;2022-12-18T08:30:03;75.80;;;24.80;;
45863;SDS011;31579;52.354;16.974;2022-12-18T08:35:03;71.90;;;23.40;;
45863;SDS011;31579;52.354;16.974;2022-12-18T08:40:03;71.90;;;23.40;;
45863;SDS011;31579;52.354;16.974;2022-12-18T08:45:03;72.10;;;23.10;;
45863;SDS011;31579;52.354;16.974;2022-12-18T08:50:03;72.10;;;23.10;;
45863;SDS011;31579;52.354;16.974;2022-12-18T08:55:03;70.90;;;24.00;;
45863;SDS011;31579;52.354;16.974;2022-12-18T09:00:03;70.90;;;24.00;;
45863;SDS011;31579;52.354;16.974;2022-12-18T09:05:03;71.70;;;24.50;;
45863;SDS011;31579;52.354;16.974;2022-12-18T09:10:03;71.70;;;24.50;;
45863;SDS011;31579;52.354;16.974;2022-12-18T09:15:03;76.50;;;25.80;;
45863;SDS011;31579;52.354;16.974;2022-12-18T09:20:03;76.50;;;25.80;;
45863;SDS011;31579;52.354;16.974;2022-12-18T09:26:32;73.70;;;27.40;;
45863;SDS011;31579;52.354;16.974;2022-12-18T09:31:32;73.70;;;27.40;;
45863;SDS011;31579;52.354;16.974;2022-12-18T09:34:17;73.70;;;27.40;;
45863;SDS011;31579;52.354;16.974;2022-12-18T09:39:16;73.70;;;27.40;;
45863;SDS011;31579;52.354;16.974;2022-12-18T09:44:18;73.70;;;27.40;;
45863;SDS011;31579;52.354;16.974;2022-12-18T09:55:36;50.90;;;19.90;;
45863;SDS011;31579;52.354;16.974;2022-12-18T10:00:32;50.90;;;19.90;;
45863;SDS011;31579;52.354;16.974;2022-12-18T10:05:36;55.90;;;19.60;;
45863;SDS011;31579;52.354;16.974;2022-12-18T10:15:36;57.60;;;20.60;;
45863;SDS011;31579;52.354;16.974;2022-12-18T10:20:34;57.60;;;20.60;;
45863;SDS011;31579;52.354;16.974;2022-12-18T10:25:34;59.20;;;22.40;;
45863;SDS011;31579;52.354;16.974;2022-12-18T10:30:32;59.20;;;22.40;;
45863;SDS011;31579;52.354;16.974;2022-12-18T10:35:32;58.00;;;23.60;;
45863;SDS011;31579;52.354;16.974;2022-12-18T10:39:31;58.00;;;23.60;;
45863;SDS011;31579;52.354;16.974;2022-12-18T10:50:48;53.70;;;22.40;;
45863;SDS011;31579;52.354;16.974;2022-12-18T10:55:47;57.80;;;23.90;;
45863;SDS011;31579;52.354;16.974;2022-12-18T11:05:47;51.40;;;21.50;;
45863;SDS011;31579;52.354;16.974;2022-12-18T11:10:47;51.40;;;21.50;;
45863;SDS011;31579;52.354;16.974;2022-12-18T11:15:47;54.40;;;22.70;;
45863;SDS011;31579;52.354;16.974;2022-12-18T11:30:47;53.40;;;21.80;;
45863;SDS011;31579;52.354;16.974;2022-12-18T11:36:41;49.30;;;20.20;;
45863;SDS011;31579;52.354;16.974;2022-12-18T11:41:41;49.30;;;20.20;;
45863;SDS011;31579;52.354;16.974;2022-12-18T11:46:45;60.70;;;26.60;;
45863;SDS011;31579;52.354;16.974;2022-12-18T11:51:46;60.70;;;26.60;;
45863;SDS011;31579;52.354;16.974;2022-12-18T11:56:43;44.60;;;19.30;;
45863;SDS011;31579;52.354;16.974;2022-12-18T12:21:42;64.50;;;28.10;;
45863;SDS011;31579;52.354;16.974;2022-12-18T12:31:46;67.20;;;27.70;;
45863;SDS011;31579;52.354;16.974;2022-12-18T12:41:40;56.60;;;23.70;;
45863;SDS011;31579;52.354;16.974;2022-12-18T12:50:36;58.00;;;25.20;;
45863;SDS011;31579;52.354;16.974;2022-12-18T12:55:36;55.40;;;23.50;;
45863;SDS011;31579;52.354;16.974;2022-12-18T13:00:39;55.40;;;23.50;;
45863;SDS011;31579;52.354;16.974;2022-12-18T13:10:37;62.40;;;26.20;;
45863;SDS011;31579;52.354;16.974;2022-12-18T13:38:20;86.20;;;36.90;;
45863;SDS011;31579;52.354;16.974;2022-12-18T13:48:10;76.30;;;30.50;;
45863;SDS011;31579;52.354;16.974;2022-12-18T13:53:05;76.30;;;30.50;;
45863;SDS011;31579;52.354;16.974;2022-12-18T13:58:05;76.20;;;27.90;;
45863;SDS011;31579;52.354;16.974;2022-12-18T14:03:15;76.20;;;27.90;;
45863;SDS011;31579;52.354;16.974;2022-12-18T14:08:08;86.00;;;36.90;;
45863;SDS011;31579;52.354;16.974;2022-12-18T14:13:10;86.00;;;36.90;;
45863;SDS011;31579;52.354;16.974;2022-12-18T14:18:20;64.60;;;27.00;;
45863;SDS011;31579;52.354;16.974;2022-12-18T14:28:18;76.00;;;33.40;;
45863;SDS011;31579;52.354;16.974;2022-12-18T14:33:21;76.00;;;33.40;;
45863;SDS011;31579;52.354;16.974;2022-12-18T14:43:18;71.80;;;28.30;;
45863;SDS011;31579;52.354;16.974;2022-12-18T14:48:20;72.70;;;31.60;;
45863;SDS011;31579;52.354;16.974;2022-12-18T14:58:18;75.80;;;32.60;;
45863;SDS011;31579;52.354;16.974;2022-12-18T15:03:18;75.80;;;32.60;;
45863;SDS011;31579;52.354;16.974;2022-12-18T15:18:12;78.60;;;30.60;;
45863;SDS011;31579;52.354;16.974;2022-12-18T15:22:59;78.60;;;30.60;;
45863;SDS011;31579;52.354;16.974;2022-12-18T15:27:59;75.90;;;29.50;;
45863;SDS011;31579;52.354;16.974;2022-12-18T15:37:59;69.20;;;26.40;;
45863;SDS011;31579;52.354;16.974;2022-12-18T15:42:59;69.20;;;26.40;;
45863;SDS011;31579;52.354;16.974;2022-12-18T15:47:59;70.20;;;30.40;;
45863;SDS011;31579;52.354;16.974;2022-12-18T15:52:59;70.20;;;30.40;;
45863;SDS011;31579;52.354;16.974;2022-12-18T15:57:59;66.30;;;26.10;;
45863;SDS011;31579;52.354;16.974;2022-12-18T16:02:59;66.30;;;26.10;;
45863;SDS011;31579;52.354;16.974;2022-12-18T16:07:59;66.70;;;25.80;;
45863;SDS011;31579;52.354;16.974;2022-12-18T16:12:59;66.70;;;25.80;;
45863;SDS011;31579;52.354;16.974;2022-12-18T16:17:59;64.10;;;25.80;;
45863;SDS011;31579;52.354;16.974;2022-12-18T16:22:59;64.10;;;25.80;;
45863;SDS011;31579;52.354;16.974;2022-12-18T16:27:59;81.50;;;29.60;;
45863;SDS011;31579;52.354;16.974;2022-12-18T16:33:03;81.50;;;29.60;;
45863;SDS011;31579;52.354;16.974;2022-12-18T16:37:59;92.60;;;35.30;;
45863;SDS011;31579;52.354;16.974;2022-12-18T16:42:59;92.60;;;35.30;;
45863;SDS011;31579;52.354;16.974;2022-12-18T16:47:59;96.30;;;35.80;;
45863;SDS011;31579;52.354;16.974;2022-12-18T16:53:02;96.30;;;35.80;;
45863;SDS011;31579;52.354;16.974;2022-12-18T16:57:59;88.40;;;35.60;;
45863;SDS011;31579;52.354;16.974;2022-12-18T17:02:59;88.40;;;35.60;;
45863;SDS011;31579;52.354;16.974;2022-12-18T17:14:12;87.40;;;33.50;;
45863;SDS011;31579;52.354;16.974;2022-12-18T17:19:10;87.40;;;33.50;;
45863;SDS011;31579;52.354;16.974;2022-12-18T17:24:10;80.60;;;31.50;;
45863;SDS011;31579;52.354;16.974;2022-12-18T17:29:11;80.60;;;31.50;;
45863;SDS011;31579;52.354;16.974;2022-12-18T17:34:10;81.30;;;31.00;;
45863;SDS011;31579;52.354;16.974;2022-12-18T17:39:14;81.30;;;31.00;;
45863;SDS011;31579;52.354;16.974;2022-12-18T17:44:10;77.40;;;30.90;;
45863;SDS011;31579;52.354;16.974;2022-12-18T17:49:10;77.40;;;30.90;;
45863;SDS011;31579;52.354;16.974;2022-12-18T17:56:02;77.40;;;29.90;;
45863;SDS011;31579;52.354;16.974;2022-12-18T18:01:02;77.40;;;29.90;;
45863;SDS011;31579;52.354;16.974;2022-12-18T18:06:02;83.50;;;30.90;;
45863;SDS011;31579;52.354;16.974;2022-12-18T18:11:04;83.50;;;30.90;;
45863;SDS011;31579;52.354;16.974;2022-12-18T18:16:02;76.40;;;32.60;;
45863;SDS011;31579;52.354;16.974;2022-12-18T18:21:03;76.40;;;32.60;;
45863;SDS011;31579;52.354;16.974;2022-12-18T18:26:03;87.20;;;33.10;;
45863;SDS011;31579;52.354;16.974;2022-12-18T18:36:02;85.90;;;32.60;;
45863;SDS011;31579;52.354;16.974;2022-12-18T18:41:03;85.90;;;32.60;;
45863;SDS011;31579;52.354;16.974;2022-12-18T18:46:03;87.60;;;32.60;;
45863;SDS011;31579;52.354;16.974;2022-12-18T18:51:03;87.60;;;32.60;;
45863;SDS011;31579;52.354;16.974;2022-12-18T18:56:02;91.60;;;32.80;;
45863;SDS011;31579;52.354;16.974;2022-12-18T19:01:03;91.60;;;32.80;;
45863;SDS011;31579;52.354;16.974;2022-12-18T19:06:03;85.40;;;32.40;;
45863;SDS011;31579;52.354;16.974;2022-12-18T19:11:07;85.40;;;32.40;;
45863;SDS011;31579;52.354;16.974;2022-12-18T19:16:06;94.90;;;34.70;;
45863;SDS011;31579;52.354;16.974;2022-12-18T19:21:03;94.90;;;34.70;;
45863;SDS011;31579;52.354;16.974;2022-12-18T19:26:03;88.70;;;34.10;;
45863;SDS011;31579;52.354;16.974;2022-12-18T19:31:05;88.70;;;34.10;;
45863;SDS011;31579;52.354;16.974;2022-12-18T19:41:04;83.20;;;33.00;;
45863;SDS011;31579;52.354;16.974;2022-12-18T19:46:03;93.20;;;32.90;;
45863;SDS011;31579;52.354;16.974;2022-12-18T19:51:04;93.20;;;32.90;;
45863;SDS011;31579;52.354;16.974;2022-12-18T19:56:04;77.90;;;29.90;;
45863;SDS011;31579;52.354;16.974;2022-12-18T20:01:02;77.90;;;29.90;;
45863;SDS011;31579;52.354;16.974;2022-12-18T20:11:03;94.10;;;33.00;;
45863;SDS011;31579;52.354;16.974;2022-12-18T20:16:02;92.50;;;33.70;;
45863;SDS011;31579;52.354;16.974;2022-12-18T20:21:02;92.50;;;33.70;;
45863;SDS011;31579;52.354;16.974;2022-12-18T20:26:02;88.50;;;32.50;;
45863;SDS011;31579;52.354;16.974;2022-12-18T20:31:03;88.50;;;32.50;;
45863;SDS011;31579;52.354;16.974;2022-12-18T20:36:04;90.10;;;32.60;;
45863;SDS011;31579;52.354;16.974;2022-12-18T20:41:05;90.10;;;32.60;;
45863;SDS011;31579;52.354;16.974;2022-12-18T20:46:04;87.30;;;31.20;;
45863;SDS011;31579;52.354;16.974;2022-12-18T20:51:03;87.30;;;31.20;;
45863;SDS011;31579;52.354;16.974;2022-12-18T21:01:06;94.90;;;32.80;;
45863;SDS011;31579;52.354;16.974;2022-12-18T21:06:02;100.10;;;33.50;;
45863;SDS011;31579;52.354;16.974;2022-12-18T21:16:02;93.00;;;31.70;;
45863;SDS011;31579;52.354;16.974;2022-12-18T21:21:02;93.00;;;31.70;;
45863;SDS011;31579;52.354;16.974;2022-12-18T21:31:02;89.80;;;32.40;;
45863;SDS011;31579;52.354;16.974;2022-12-18T21:46:02;101.80;;;33.40;;
45863;SDS011;31579;52.354;16.974;2022-12-18T21:51:02;101.80;;;33.40;;
45863;SDS011;31579;52.354;16.974;2022-12-18T21:56:02;102.90;;;34.30;;
45863;SDS011;31579;52.354;16.974;2022-12-18T22:01:05;102.90;;;34.30;;
45863;SDS011;31579;52.354;16.974;2022-12-18T22:06:03;106.50;;;35.80;;
45863;SDS011;31579;52.354;16.974;2022-12-18T22:11:03;106.50;;;35.80;;
45863;SDS011;31579;52.354;16.974;2022-12-18T22:16:03;112.90;;;37.30;;
45863;SDS011;31579;52.354;16.974;2022-12-18T22:21:04;112.90;;;37.30;;
45863;SDS011;31579;52.354;16.974;2022-12-18T22:26:03;106.40;;;39.20;;
45863;SDS011;31579;52.354;16.974;2022-12-18T22:31:03;106.40;;;39.20;;
45863;SDS011;31579;52.354;16.974;2022-12-18T22:36:04;124.70;;;41.00;;
45863;SDS011;31579;52.354;16.974;2022-12-18T22:41:05;124.70;;;41.00;;
45863;SDS011;31579;52.354;16.974;2022-12-18T22:46:03;123.40;;;40.00;;
45863;SDS011;31579;52.354;16.974;2022-12-18T22:51:03;123.40;;;40.00;;
45863;SDS011;31579;52.354;16.974;2022-12-18T22:56:03;118.60;;;38.80;;
45863;SDS011;31579;52.354;16.974;2022-12-18T23:01:04;118.60;;;38.80;;
45863;SDS011;31579;52.354;16.974;2022-12-18T23:06:05;121.40;;;41.60;;
45863;SDS011;31579;52.354;16.974;2022-12-18T23:11:03;121.40;;;41.60;;
45863;SDS011;31579;52.354;16.974;2022-12-18T23:16:06;122.50;;;42.40;;
45863;SDS011;31579;52.354;16.974;2022-12-18T23:18:53;122.50;;;42.40;;
45863;SDS011;31579;52.354;16.974;2022-12-18T23:26:03;124.20;;;40.90;;
45863;SDS011;31579;52.354;16.974;2022-12-18T23:31:04;124.20;;;40.90;;
45863;SDS011;31579;52.354;16.974;2022-12-18T23:36:03;116.50;;;41.70;;
45863;SDS011;31579;52.354;16.974;2022-12-18T23:46:08;113.60;;;40.40;;
45863;SDS011;31579;52.354;16.974;2022-12-18T23:51:04;113.60;;;40.40;;
